createdAt,value
2016-06-05T18:40:27.402Z,47.69
2016-06-05T18:41:27.343Z,47.69
2016-06-05T18:42:27.345Z,48.85
2016-06-05T18:43:27.348Z,48.85
2016-06-05T18:44:27.334Z,50.31
2016-06-05T18:45:27.322Z,49.73
2016-06-05T18:46:27.309Z,48.37
2016-06-05T18:47:27.311Z,49.8
2016-06-05T18:48:27.314Z,50.12
2016-06-05T18:49:27.300Z,50.89
2016-06-05T18:50:27.303Z,50.7
2016-06-05T18:51:27.151Z,50.29
2016-06-05T18:52:27.294Z,51.26
2016-06-05T18:53:27.297Z,51.16
2016-06-05T18:54:27.284Z,50.29
2016-06-05T18:55:27.270Z,51.06
2016-06-05T18:56:27.273Z,52.03
2016-06-05T18:57:27.261Z,52.13
2016-06-05T18:58:27.278Z,52.42
2016-06-05T18:59:27.250Z,51.45
2016-06-05T19:00:27.096Z,51.81
2016-06-05T19:01:27.271Z,51.72
2016-06-05T19:02:27.258Z,52.11
2016-06-05T19:03:27.104Z,52.11
2016-06-05T19:04:27.076Z,52.11
2016-06-05T19:05:27.094Z,52.5
2016-06-05T19:06:27.238Z,52.98
2016-06-05T19:07:27.210Z,52.11
2016-06-05T19:08:27.071Z,52.88
2016-06-05T19:09:27.215Z,52.95
2016-06-05T19:10:27.218Z,54.34
2016-06-05T19:11:27.048Z,53.17
2016-06-05T19:12:27.207Z,53.05
2016-06-05T19:13:27.943Z,52.28
2016-06-05T19:14:27.196Z,52.08
2016-06-05T19:15:27.184Z,53.15
2016-06-05T19:16:27.171Z,54.31
2016-06-05T19:17:27.221Z,55.38
2016-06-05T19:18:27.004Z,54.11
2016-06-05T19:19:27.163Z,53.92
2016-06-05T19:20:27.150Z,54.41
2016-06-05T19:21:27.153Z,53.41
2016-06-05T19:22:27.186Z,53.15
2016-06-05T19:23:27.128Z,53.22
2016-06-05T19:24:27.130Z,53.22
2016-06-05T19:25:27.117Z,54.28
2016-06-05T19:26:27.119Z,54.48
2016-06-05T19:27:27.106Z,54.28
2016-06-05T19:28:27.125Z,55.16
2016-06-05T19:29:27.112Z,55.35
2016-06-05T19:30:27.099Z,55.16
2016-06-05T19:31:27.086Z,55.32
2016-06-05T19:32:27.089Z,55.71
2016-06-05T19:33:27.076Z,55.22
2016-06-05T19:34:27.079Z,55.42
2016-06-05T19:35:26.925Z,56.59
2016-06-05T19:36:27.068Z,55.71
2016-06-05T19:37:27.055Z,56.49
2016-06-05T19:38:27.057Z,56
2016-06-05T19:39:27.045Z,56.39
2016-06-05T19:40:27.032Z,56.39
2016-06-05T19:41:27.035Z,56.29
2016-06-05T19:42:27.021Z,57.14
2016-06-05T19:43:26.868Z,57.33
2016-06-05T19:44:27.012Z,56.59
2016-06-05T19:45:26.999Z,57.43
2016-06-05T19:46:27.002Z,57.14
2016-06-05T19:47:26.989Z,57.14
2016-06-05T19:48:26.991Z,57.14
2016-06-05T19:49:26.994Z,56.46
2016-06-05T19:50:26.981Z,57.62
2016-06-05T19:51:26.968Z,56.94
2016-06-05T19:52:26.971Z,57.71
2016-06-05T19:53:26.958Z,57.91
2016-06-05T19:54:26.944Z,56.94
2016-06-05T19:55:26.947Z,56.62
2016-06-05T19:56:26.951Z,57.14
2016-06-05T19:57:26.937Z,57.59
2016-06-05T19:58:26.940Z,57.3
2016-06-05T19:59:26.927Z,58.75
2016-06-05T20:00:26.929Z,57.69
2016-06-05T20:01:26.933Z,57.79
2016-06-05T20:02:26.904Z,58.37
2016-06-05T20:03:26.953Z,58.37
2016-06-05T20:04:26.909Z,58.85
2016-06-05T20:05:26.897Z,58.65
2016-06-05T20:06:26.883Z,59.43
2016-06-05T20:07:26.886Z,60.08
2016-06-05T20:08:26.873Z,59.53
2016-06-05T20:09:26.891Z,59.31
2016-06-05T20:10:26.862Z,58.82
2016-06-05T20:11:26.850Z,59.59
2016-06-05T20:12:26.852Z,59.5
2016-06-05T20:13:26.684Z,60.47
2016-06-05T20:14:26.826Z,60.08
2016-06-05T20:15:26.877Z,60.57
2016-06-05T20:16:26.817Z,59.89
2016-06-05T20:17:26.820Z,60.27
2016-06-05T20:18:26.806Z,60.85
2016-06-05T20:19:26.808Z,59.98
2016-06-05T20:20:26.796Z,60.57
2016-06-05T20:21:26.799Z,60.63
2016-06-05T20:22:26.786Z,61.33
2016-06-05T20:23:26.616Z,60.53
2016-06-05T20:24:26.776Z,61.02
2016-06-05T20:25:26.762Z,61.02
2016-06-05T20:26:26.764Z,59.86
2016-06-05T20:27:26.752Z,60.24
2016-06-05T20:28:26.771Z,60.44
2016-06-05T20:29:26.727Z,60.82
2016-06-05T20:30:26.730Z,60.34
2016-06-05T20:31:26.732Z,60.02
2016-06-05T20:32:26.718Z,61.18
2016-06-05T20:33:26.705Z,61.08
2016-06-05T20:34:26.537Z,60.79
2016-06-05T20:35:26.696Z,60.99
2016-06-05T20:36:26.682Z,62.05
2016-06-05T20:43:09.061Z,60.79
2016-06-05T20:43:18.561Z,61.92
2016-06-05T20:44:19.033Z,62.53
2016-06-05T20:45:18.707Z,62.5
2016-06-05T20:46:18.693Z,62.79
2016-06-05T20:47:18.681Z,63.08
2016-06-05T20:48:18.668Z,62.5
2016-06-05T20:49:18.671Z,63.85
2016-06-05T20:50:18.674Z,63.85
2016-06-05T20:51:18.645Z,64.53
2016-06-05T20:52:18.648Z,64.72
2016-06-05T20:53:18.635Z,64.82
2016-06-05T20:54:18.637Z,64.72
2016-06-05T20:55:18.625Z,65.01
2016-06-05T20:56:18.612Z,65.2
